Aeroporto :
LOGIN :

Iscrizione | Disclaimer

   EN    FR    IT 

 










Sommario :    VFR   VFR Marginale   IFR   IFR Intensivo   IFR Molto Intensivo
Visibilità : 
Base nubi : 
>= 8 km
>= 3000ft
5 / 8 km
1000 / 3000 ft
1500m / 5 km
500 / 1000 ft
800 / 1500m
200 / 500 ft
< 800m
< 200 ft
Simboli :   Temporali  Nebbia  Neve Forte  Precipitazioni Forti  Vento > 20 kt
SIGMETs :   Varie  Temporali  Ghiacco  Turbolenza  Onda orograficha  Ceneri Vulcaniche






- Altitudine del aeroporto : 63 ft
- Codice IATA : BZM


EHWO - Woensdrecht Airbase

ULTIMO METAR :
  • 211525Z AUTO 36010KT 280V080 9999 FEW042 BKN060 OVC065 11/01 Q1025 BLU

METARs OBSOLETI :
  • 211455Z AUTO 02008KT 320V070 9999 FEW041 SCT062 OVC068 10/01 Q1025 BLU
  • 211425Z AUTO 02009KT 340V080 9999 BKN065 OVC071 10/00 Q1025 BLU
  • 211355Z AUTO 04007KT 360V120 9999 FEW043 SCT063 11/01 Q1025 BLU
  • 211325Z AUTO 06009KT 330V110 9999 SCT042 SCT051 10/01 Q1025 BLU
  • 211255Z AUTO 03009KT 320V110 9999 FEW040 10/01 Q1025 BLU
  • 211225Z AUTO 01011KT 320V100 9999 SCT035 SCT043 09/00 Q1025 BLU
  • 211155Z AUTO 06011KT 360V120 9999 BKN033 10/02 Q1025 BLU
  • 211125Z AUTO 04011KT 350V090 9999 SCT032 08/01 Q1025 BLU
  • 211055Z AUTO 04013KT 340V100 9999 SCT029 BKN032 08/01 Q1025 BLU
  • 211034Z AUTO 03013KT 320V070 9999 FEW021 SCT025 08/02 Q1025 BLU

Previsioni scadute.



MetMap, La meteo Aeronautica in un colpo d'occhio ! - Copyright ORBIFLY Dicembre 2007 - Disclaimer

ORBIFLY MET'MAP TEAM :

Programmazione e sviluppo : Alexandra Zaïnal
Concezione : Baudouin d'Aumeries
Supporto tecnico e logistico : Manuel Goepfert
Aiuto : Marc-Olivier Méhu
Aiuto per la traduzione : Arnaldo La Scala




FONTI E CREDITI :

   NOAA